sensor_id;sensor_type;location;lat;lon;timestamp;P1;durP1;ratioP1;P2;durP2;ratioP2
49296;SDS011;35163;48.878;18.040;2023-11-21T00:01:16;7.25;;;2.30;;
49296;SDS011;35163;48.878;18.040;2023-11-21T00:03:43;7.38;;;2.45;;
49296;SDS011;35163;48.878;18.040;2023-11-21T00:06:10;7.18;;;2.42;;
49296;SDS011;35163;48.878;18.040;2023-11-21T00:08:37;6.70;;;2.67;;
49296;SDS011;35163;48.878;18.040;2023-11-21T00:11:04;6.43;;;2.47;;
49296;SDS011;35163;48.878;18.040;2023-11-21T00:13:34;8.77;;;2.42;;
49296;SDS011;35163;48.878;18.040;2023-11-21T00:16:01;11.07;;;3.40;;
49296;SDS011;35163;48.878;18.040;2023-11-21T00:18:28;6.10;;;2.92;;
49296;SDS011;35163;48.878;18.040;2023-11-21T00:20:55;9.88;;;2.95;;
49296;SDS011;35163;48.878;18.040;2023-11-21T00:23:24;7.68;;;2.85;;
49296;SDS011;35163;48.878;18.040;2023-11-21T00:25:51;8.07;;;2.88;;
49296;SDS011;35163;48.878;18.040;2023-11-21T00:28:18;8.30;;;2.90;;
49296;SDS011;35163;48.878;18.040;2023-11-21T00:30:45;10.75;;;3.08;;
49296;SDS011;35163;48.878;18.040;2023-11-21T00:33:12;9.20;;;3.47;;
49296;SDS011;35163;48.878;18.040;2023-11-21T00:35:39;9.40;;;4.18;;
49296;SDS011;35163;48.878;18.040;2023-11-21T00:38:06;8.82;;;3.03;;
49296;SDS011;35163;48.878;18.040;2023-11-21T00:40:35;8.05;;;3.08;;
49296;SDS011;35163;48.878;18.040;2023-11-21T00:43:01;7.20;;;2.95;;
49296;SDS011;35163;48.878;18.040;2023-11-21T00:45:31;8.38;;;3.22;;
49296;SDS011;35163;48.878;18.040;2023-11-21T00:47:58;6.75;;;2.97;;
49296;SDS011;35163;48.878;18.040;2023-11-21T00:50:25;10.65;;;4.03;;
49296;SDS011;35163;48.878;18.040;2023-11-21T00:52:52;10.27;;;3.22;;
49296;SDS011;35163;48.878;18.040;2023-11-21T00:55:19;8.13;;;3.65;;
49296;SDS011;35163;48.878;18.040;2023-11-21T00:57:45;10.45;;;3.95;;
49296;SDS011;35163;48.878;18.040;2023-11-21T01:00:12;14.50;;;6.75;;
49296;SDS011;35163;48.878;18.040;2023-11-21T01:02:45;15.43;;;5.03;;
49296;SDS011;35163;48.878;18.040;2023-11-21T01:05:13;17.58;;;6.82;;
49296;SDS011;35163;48.878;18.040;2023-11-21T01:07:40;14.02;;;5.07;;
49296;SDS011;35163;48.878;18.040;2023-11-21T01:10:07;12.10;;;3.90;;
49296;SDS011;35163;48.878;18.040;2023-11-21T01:12:36;11.93;;;4.35;;
49296;SDS011;35163;48.878;18.040;2023-11-21T01:15:04;17.80;;;4.80;;
49296;SDS011;35163;48.878;18.040;2023-11-21T01:17:35;9.27;;;4.18;;
49296;SDS011;35163;48.878;18.040;2023-11-21T01:20:02;14.32;;;5.32;;
49296;SDS011;35163;48.878;18.040;2023-11-21T01:22:33;13.25;;;4.78;;
49296;SDS011;35163;48.878;18.040;2023-11-21T01:24:59;13.32;;;5.38;;
49296;SDS011;35163;48.878;18.040;2023-11-21T01:27:26;12.98;;;5.88;;
49296;SDS011;35163;48.878;18.040;2023-11-21T01:29:53;17.63;;;6.63;;
49296;SDS011;35163;48.878;18.040;2023-11-21T01:32:20;12.40;;;4.70;;
49296;SDS011;35163;48.878;18.040;2023-11-21T01:34:47;13.90;;;5.75;;
49296;SDS011;35163;48.878;18.040;2023-11-21T01:37:16;13.18;;;4.60;;
49296;SDS011;35163;48.878;18.040;2023-11-21T01:39:43;8.52;;;3.67;;
49296;SDS011;35163;48.878;18.040;2023-11-21T01:42:10;11.70;;;4.85;;
49296;SDS011;35163;48.878;18.040;2023-11-21T01:44:39;11.55;;;4.00;;
49296;SDS011;35163;48.878;18.040;2023-11-21T01:47:06;11.05;;;4.18;;
49296;SDS011;35163;48.878;18.040;2023-11-21T01:49:34;11.40;;;4.20;;
49296;SDS011;35163;48.878;18.040;2023-11-21T01:52:02;15.07;;;5.50;;
49296;SDS011;35163;48.878;18.040;2023-11-21T01:54:30;15.88;;;5.10;;
49296;SDS011;35163;48.878;18.040;2023-11-21T01:57:00;18.80;;;7.63;;
49296;SDS011;35163;48.878;18.040;2023-11-21T01:59:34;17.40;;;7.45;;
49296;SDS011;35163;48.878;18.040;2023-11-21T02:02:04;20.55;;;9.65;;
49296;SDS011;35163;48.878;18.040;2023-11-21T02:04:32;22.95;;;9.65;;
49296;SDS011;35163;48.878;18.040;2023-11-21T02:07:00;21.15;;;9.45;;
49296;SDS011;35163;48.878;18.040;2023-11-21T02:09:27;21.17;;;9.10;;
49296;SDS011;35163;48.878;18.040;2023-11-21T02:11:55;26.33;;;14.00;;
49296;SDS011;35163;48.878;18.040;2023-11-21T02:14:27;28.98;;;13.82;;
49296;SDS011;35163;48.878;18.040;2023-11-21T02:16:54;33.00;;;16.40;;
49296;SDS011;35163;48.878;18.040;2023-11-21T02:19:23;37.63;;;19.25;;
49296;SDS011;35163;48.878;18.040;2023-11-21T02:21:52;24.25;;;12.45;;
49296;SDS011;35163;48.878;18.040;2023-11-21T02:24:20;40.22;;;19.58;;
49296;SDS011;35163;48.878;18.040;2023-11-21T02:26:53;29.52;;;13.68;;
49296;SDS011;35163;48.878;18.040;2023-11-21T02:29:20;32.03;;;16.58;;
49296;SDS011;35163;48.878;18.040;2023-11-21T02:31:54;50.92;;;27.17;;
49296;SDS011;35163;48.878;18.040;2023-11-21T02:34:22;34.70;;;15.77;;
49296;SDS011;35163;48.878;18.040;2023-11-21T02:36:50;31.92;;;15.55;;
49296;SDS011;35163;48.878;18.040;2023-11-21T02:39:17;26.58;;;12.85;;
49296;SDS011;35163;48.878;18.040;2023-11-21T02:41:44;44.53;;;20.63;;
49296;SDS011;35163;48.878;18.040;2023-11-21T02:44:11;44.72;;;21.58;;
49296;SDS011;35163;48.878;18.040;2023-11-21T02:46:38;36.15;;;18.00;;
49296;SDS011;35163;48.878;18.040;2023-11-21T02:49:06;29.42;;;14.57;;
49296;SDS011;35163;48.878;18.040;2023-11-21T02:51:33;38.38;;;18.70;;
49296;SDS011;35163;48.878;18.040;2023-11-21T02:54:00;40.13;;;20.48;;
49296;SDS011;35163;48.878;18.040;2023-11-21T02:56:28;44.03;;;21.10;;
49296;SDS011;35163;48.878;18.040;2023-11-21T02:58:55;43.03;;;21.25;;
49296;SDS011;35163;48.878;18.040;2023-11-21T03:01:23;52.72;;;26.08;;
49296;SDS011;35163;48.878;18.040;2023-11-21T03:03:53;37.78;;;19.13;;
49296;SDS011;35163;48.878;18.040;2023-11-21T03:06:22;30.17;;;14.48;;
49296;SDS011;35163;48.878;18.040;2023-11-21T03:08:50;34.88;;;16.73;;
49296;SDS011;35163;48.878;18.040;2023-11-21T03:11:17;36.53;;;19.50;;
49296;SDS011;35163;48.878;18.040;2023-11-21T03:13:44;32.47;;;15.65;;
49296;SDS011;35163;48.878;18.040;2023-11-21T03:16:11;29.20;;;13.10;;
49296;SDS011;35163;48.878;18.040;2023-11-21T03:18:39;32.05;;;14.30;;
49296;SDS011;35163;48.878;18.040;2023-11-21T03:21:07;27.67;;;13.02;;
49296;SDS011;35163;48.878;18.040;2023-11-21T03:23:37;26.98;;;13.10;;
49296;SDS011;35163;48.878;18.040;2023-11-21T03:26:04;23.40;;;11.45;;
49296;SDS011;35163;48.878;18.040;2023-11-21T03:28:34;21.27;;;10.02;;
49296;SDS011;35163;48.878;18.040;2023-11-21T03:31:01;19.42;;;9.18;;
49296;SDS011;35163;48.878;18.040;2023-11-21T03:33:28;22.67;;;10.50;;
49296;SDS011;35163;48.878;18.040;2023-11-21T03:35:55;17.17;;;7.72;;
49296;SDS011;35163;48.878;18.040;2023-11-21T03:38:21;14.35;;;5.93;;
49296;SDS011;35163;48.878;18.040;2023-11-21T03:40:48;18.55;;;7.93;;
49296;SDS011;35163;48.878;18.040;2023-11-21T03:43:15;15.10;;;6.03;;
49296;SDS011;35163;48.878;18.040;2023-11-21T03:45:42;16.30;;;5.68;;
49296;SDS011;35163;48.878;18.040;2023-11-21T03:48:09;17.63;;;8.10;;
49296;SDS011;35163;48.878;18.040;2023-11-21T03:50:38;17.08;;;8.20;;
49296;SDS011;35163;48.878;18.040;2023-11-21T03:53:05;19.13;;;7.32;;
49296;SDS011;35163;48.878;18.040;2023-11-21T03:55:32;16.05;;;6.47;;
49296;SDS011;35163;48.878;18.040;2023-11-21T03:57:59;14.48;;;5.40;;
49296;SDS011;35163;48.878;18.040;2023-11-21T04:00:25;18.10;;;8.18;;
49296;SDS011;35163;48.878;18.040;2023-11-21T04:02:53;15.90;;;7.45;;
49296;SDS011;35163;48.878;18.040;2023-11-21T04:05:20;18.52;;;6.93;;
49296;SDS011;35163;48.878;18.040;2023-11-21T04:07:50;19.80;;;7.78;;
49296;SDS011;35163;48.878;18.040;2023-11-21T04:10:17;17.60;;;8.48;;
49296;SDS011;35163;48.878;18.040;2023-11-21T04:12:44;14.13;;;5.80;;
49296;SDS011;35163;48.878;18.040;2023-11-21T04:15:12;16.27;;;7.30;;
49296;SDS011;35163;48.878;18.040;2023-11-21T04:17:40;20.13;;;8.05;;
49296;SDS011;35163;48.878;18.040;2023-11-21T04:20:08;14.23;;;4.60;;
49296;SDS011;35163;48.878;18.040;2023-11-21T04:22:37;11.73;;;5.50;;
49296;SDS011;35163;48.878;18.040;2023-11-21T04:25:08;16.92;;;5.45;;
49296;SDS011;35163;48.878;18.040;2023-11-21T04:27:36;13.27;;;5.95;;
49296;SDS011;35163;48.878;18.040;2023-11-21T04:30:05;16.08;;;6.45;;
49296;SDS011;35163;48.878;18.040;2023-11-21T04:32:32;12.10;;;5.03;;
49296;SDS011;35163;48.878;18.040;2023-11-21T04:35:00;14.15;;;5.05;;
49296;SDS011;35163;48.878;18.040;2023-11-21T04:37:26;12.95;;;5.25;;
49296;SDS011;35163;48.878;18.040;2023-11-21T04:39:53;15.20;;;6.32;;
49296;SDS011;35163;48.878;18.040;2023-11-21T04:42:20;9.52;;;3.75;;
49296;SDS011;35163;48.878;18.040;2023-11-21T04:44:47;12.82;;;5.13;;
49296;SDS011;35163;48.878;18.040;2023-11-21T04:47:13;10.93;;;5.20;;
49296;SDS011;35163;48.878;18.040;2023-11-21T04:49:41;11.98;;;6.05;;
49296;SDS011;35163;48.878;18.040;2023-11-21T04:52:09;13.85;;;4.75;;
49296;SDS011;35163;48.878;18.040;2023-11-21T04:54:36;14.27;;;5.47;;
49296;SDS011;35163;48.878;18.040;2023-11-21T04:57:03;14.23;;;4.78;;
49296;SDS011;35163;48.878;18.040;2023-11-21T04:59:31;14.60;;;4.43;;
49296;SDS011;35163;48.878;18.040;2023-11-21T05:01:58;9.00;;;3.72;;
49296;SDS011;35163;48.878;18.040;2023-11-21T05:04:26;11.95;;;3.85;;
49296;SDS011;35163;48.878;18.040;2023-11-21T05:06:53;13.23;;;4.60;;
49296;SDS011;35163;48.878;18.040;2023-11-21T05:09:21;11.27;;;3.83;;
49296;SDS011;35163;48.878;18.040;2023-11-21T05:11:48;12.07;;;4.50;;
49296;SDS011;35163;48.878;18.040;2023-11-21T05:14:15;10.02;;;3.78;;
49296;SDS011;35163;48.878;18.040;2023-11-21T05:16:42;12.77;;;4.93;;
49296;SDS011;35163;48.878;18.040;2023-11-21T05:19:09;12.90;;;5.63;;
49296;SDS011;35163;48.878;18.040;2023-11-21T05:21:35;13.45;;;4.60;;
49296;SDS011;35163;48.878;18.040;2023-11-21T05:24:02;11.93;;;4.90;;
49296;SDS011;35163;48.878;18.040;2023-11-21T05:26:29;13.73;;;4.43;;
49296;SDS011;35163;48.878;18.040;2023-11-21T05:28:56;9.07;;;4.13;;
49296;SDS011;35163;48.878;18.040;2023-11-21T05:31:22;12.98;;;4.05;;
49296;SDS011;35163;48.878;18.040;2023-11-21T05:33:49;9.90;;;3.60;;
49296;SDS011;35163;48.878;18.040;2023-11-21T05:36:16;12.98;;;4.30;;
49296;SDS011;35163;48.878;18.040;2023-11-21T05:38:43;11.45;;;4.85;;
49296;SDS011;35163;48.878;18.040;2023-11-21T05:41:10;13.77;;;4.32;;
49296;SDS011;35163;48.878;18.040;2023-11-21T05:43:39;13.82;;;4.50;;
49296;SDS011;35163;48.878;18.040;2023-11-21T05:46:07;13.23;;;4.40;;
49296;SDS011;35163;48.878;18.040;2023-11-21T05:48:34;15.50;;;5.15;;
49296;SDS011;35163;48.878;18.040;2023-11-21T05:51:06;15.55;;;6.30;;
49296;SDS011;35163;48.878;18.040;2023-11-21T05:53:32;15.63;;;5.10;;
49296;SDS011;35163;48.878;18.040;2023-11-21T05:55:59;14.18;;;4.55;;
49296;SDS011;35163;48.878;18.040;2023-11-21T05:58:26;18.67;;;3.85;;
49296;SDS011;35163;48.878;18.040;2023-11-21T06:00:53;14.00;;;4.20;;
49296;SDS011;35163;48.878;18.040;2023-11-21T06:03:20;17.75;;;4.20;;
49296;SDS011;35163;48.878;18.040;2023-11-21T06:05:47;9.07;;;3.45;;
49296;SDS011;35163;48.878;18.040;2023-11-21T06:08:14;17.63;;;3.90;;
49296;SDS011;35163;48.878;18.040;2023-11-21T06:10:43;16.23;;;3.67;;
49296;SDS011;35163;48.878;18.040;2023-11-21T06:13:10;19.88;;;4.63;;
49296;SDS011;35163;48.878;18.040;2023-11-21T06:15:37;21.33;;;5.07;;
49296;SDS011;35163;48.878;18.040;2023-11-21T06:18:03;14.82;;;3.50;;
49296;SDS011;35163;48.878;18.040;2023-11-21T06:20:33;31.27;;;4.00;;
49296;SDS011;35163;48.878;18.040;2023-11-21T06:22:59;17.30;;;3.78;;
49296;SDS011;35163;48.878;18.040;2023-11-21T06:25:30;18.63;;;4.53;;
49296;SDS011;35163;48.878;18.040;2023-11-21T06:28:00;12.32;;;3.53;;
49296;SDS011;35163;48.878;18.040;2023-11-21T06:30:27;21.00;;;4.80;;
49296;SDS011;35163;48.878;18.040;2023-11-21T06:32:55;14.70;;;4.55;;
49296;SDS011;35163;48.878;18.040;2023-11-21T06:35:22;17.42;;;4.40;;
49296;SDS011;35163;48.878;18.040;2023-11-21T06:37:49;12.57;;;4.00;;
49296;SDS011;35163;48.878;18.040;2023-11-21T06:40:17;15.93;;;4.80;;
49296;SDS011;35163;48.878;18.040;2023-11-21T06:42:45;15.80;;;4.88;;
49296;SDS011;35163;48.878;18.040;2023-11-21T06:45:13;17.80;;;5.93;;
49296;SDS011;35163;48.878;18.040;2023-11-21T06:47:41;15.02;;;5.63;;
49296;SDS011;35163;48.878;18.040;2023-11-21T06:50:09;14.52;;;5.28;;
49296;SDS011;35163;48.878;18.040;2023-11-21T06:52:36;16.65;;;5.95;;
49296;SDS011;35163;48.878;18.040;2023-11-21T06:55:03;14.35;;;6.07;;
49296;SDS011;35163;48.878;18.040;2023-11-21T06:57:31;12.40;;;5.20;;
49296;SDS011;35163;48.878;18.040;2023-11-21T06:59:57;19.60;;;6.28;;
49296;SDS011;35163;48.878;18.040;2023-11-21T07:02:24;14.25;;;5.40;;
49296;SDS011;35163;48.878;18.040;2023-11-21T07:04:51;18.23;;;7.47;;
49296;SDS011;35163;48.878;18.040;2023-11-21T07:07:18;17.33;;;6.35;;
49296;SDS011;35163;48.878;18.040;2023-11-21T07:09:45;21.85;;;5.82;;
49296;SDS011;35163;48.878;18.040;2023-11-21T07:12:12;16.27;;;6.03;;
49296;SDS011;35163;48.878;18.040;2023-11-21T07:14:40;12.57;;;5.70;;
49296;SDS011;35163;48.878;18.040;2023-11-21T07:17:09;13.40;;;5.30;;
49296;SDS011;35163;48.878;18.040;2023-11-21T07:19:36;14.68;;;4.80;;
49296;SDS011;35163;48.878;18.040;2023-11-21T07:22:03;12.02;;;4.85;;
49296;SDS011;35163;48.878;18.040;2023-11-21T07:24:32;11.35;;;4.95;;
49296;SDS011;35163;48.878;18.040;2023-11-21T07:26:59;14.45;;;4.60;;
49296;SDS011;35163;48.878;18.040;2023-11-21T07:29:27;13.98;;;5.05;;
49296;SDS011;35163;48.878;18.040;2023-11-21T07:31:55;12.23;;;5.05;;
49296;SDS011;35163;48.878;18.040;2023-11-21T07:34:23;10.65;;;4.50;;
49296;SDS011;35163;48.878;18.040;2023-11-21T07:36:49;10.00;;;4.25;;
49296;SDS011;35163;48.878;18.040;2023-11-21T07:39:16;15.55;;;4.40;;
49296;SDS011;35163;48.878;18.040;2023-11-21T07:41:43;10.43;;;4.40;;
49296;SDS011;35163;48.878;18.040;2023-11-21T07:44:18;10.45;;;3.80;;
49296;SDS011;35163;48.878;18.040;2023-11-21T07:46:46;14.15;;;3.72;;
49296;SDS011;35163;48.878;18.040;2023-11-21T07:49:13;11.40;;;4.28;;
49296;SDS011;35163;48.878;18.040;2023-11-21T07:51:47;9.18;;;3.88;;
49296;SDS011;35163;48.878;18.040;2023-11-21T07:54:14;11.25;;;4.15;;
49296;SDS011;35163;48.878;18.040;2023-11-21T07:56:40;9.70;;;3.90;;
49296;SDS011;35163;48.878;18.040;2023-11-21T07:59:07;7.63;;;3.60;;
49296;SDS011;35163;48.878;18.040;2023-11-21T08:01:34;8.27;;;3.78;;
49296;SDS011;35163;48.878;18.040;2023-11-21T08:04:01;12.35;;;4.22;;
49296;SDS011;35163;48.878;18.040;2023-11-21T08:06:30;8.90;;;3.47;;
49296;SDS011;35163;48.878;18.040;2023-11-21T08:08:58;7.80;;;3.25;;
49296;SDS011;35163;48.878;18.040;2023-11-21T08:11:25;9.13;;;3.35;;
49296;SDS011;35163;48.878;18.040;2023-11-21T08:13:52;7.30;;;3.03;;
49296;SDS011;35163;48.878;18.040;2023-11-21T08:16:20;8.82;;;3.00;;
49296;SDS011;35163;48.878;18.040;2023-11-21T08:18:47;17.10;;;3.75;;
49296;SDS011;35163;48.878;18.040;2023-11-21T08:21:14;10.77;;;3.83;;
49296;SDS011;35163;48.878;18.040;2023-11-21T08:23:41;10.82;;;3.97;;
49296;SDS011;35163;48.878;18.040;2023-11-21T08:26:08;12.60;;;3.60;;
49296;SDS011;35163;48.878;18.040;2023-11-21T08:28:35;14.55;;;3.67;;
49296;SDS011;35163;48.878;18.040;2023-11-21T08:31:02;9.15;;;3.30;;
49296;SDS011;35163;48.878;18.040;2023-11-21T08:33:28;11.77;;;3.47;;
49296;SDS011;35163;48.878;18.040;2023-11-21T08:35:55;8.70;;;3.03;;
49296;SDS011;35163;48.878;18.040;2023-11-21T08:38:22;7.40;;;3.40;;
49296;SDS011;35163;48.878;18.040;2023-11-21T08:40:49;9.05;;;3.08;;
49296;SDS011;35163;48.878;18.040;2023-11-21T08:43:15;11.93;;;3.85;;
49296;SDS011;35163;48.878;18.040;2023-11-21T08:45:46;7.70;;;2.65;;
49296;SDS011;35163;48.878;18.040;2023-11-21T08:48:13;10.00;;;3.40;;
49296;SDS011;35163;48.878;18.040;2023-11-21T08:50:40;5.88;;;2.65;;
49296;SDS011;35163;48.878;18.040;2023-11-21T08:53:07;8.48;;;3.20;;
49296;SDS011;35163;48.878;18.040;2023-11-21T08:55:34;7.43;;;2.92;;
49296;SDS011;35163;48.878;18.040;2023-11-21T08:58:04;6.55;;;2.30;;
49296;SDS011;35163;48.878;18.040;2023-11-21T09:00:32;7.95;;;2.63;;
49296;SDS011;35163;48.878;18.040;2023-11-21T09:03:00;7.75;;;2.70;;
49296;SDS011;35163;48.878;18.040;2023-11-21T09:05:28;7.25;;;2.50;;
49296;SDS011;35163;48.878;18.040;2023-11-21T09:07:55;7.50;;;2.83;;
49296;SDS011;35163;48.878;18.040;2023-11-21T09:10:21;8.07;;;2.75;;
49296;SDS011;35163;48.878;18.040;2023-11-21T09:12:49;7.80;;;2.97;;
49296;SDS011;35163;48.878;18.040;2023-11-21T09:15:16;9.07;;;3.08;;
49296;SDS011;35163;48.878;18.040;2023-11-21T09:17:42;5.57;;;2.45;;
49296;SDS011;35163;48.878;18.040;2023-11-21T09:20:11;9.18;;;2.78;;
49296;SDS011;35163;48.878;18.040;2023-11-21T09:22:38;6.53;;;2.65;;
49296;SDS011;35163;48.878;18.040;2023-11-21T09:25:05;7.47;;;2.80;;
49296;SDS011;35163;48.878;18.040;2023-11-21T09:27:33;6.05;;;2.70;;
49296;SDS011;35163;48.878;18.040;2023-11-21T09:30:02;6.50;;;2.42;;
49296;SDS011;35163;48.878;18.040;2023-11-21T09:32:31;5.55;;;2.55;;
49296;SDS011;35163;48.878;18.040;2023-11-21T09:34:58;8.63;;;2.70;;
49296;SDS011;35163;48.878;18.040;2023-11-21T09:37:25;6.45;;;2.40;;
49296;SDS011;35163;48.878;18.040;2023-11-21T09:39:53;13.00;;;4.15;;
49296;SDS011;35163;48.878;18.040;2023-11-21T09:42:37;6.78;;;2.38;;
49296;SDS011;35163;48.878;18.040;2023-11-21T09:47:47;5.93;;;2.70;;
49296;SDS011;35163;48.878;18.040;2023-11-21T09:50:16;10.25;;;2.95;;
49296;SDS011;35163;48.878;18.040;2023-11-21T09:52:58;7.35;;;2.60;;
49296;SDS011;35163;48.878;18.040;2023-11-21T09:55:45;8.57;;;2.45;;
49296;SDS011;35163;48.878;18.040;2023-11-21T09:58:14;5.35;;;2.70;;
49296;SDS011;35163;48.878;18.040;2023-11-21T10:00:42;9.48;;;2.80;;
49296;SDS011;35163;48.878;18.040;2023-11-21T10:03:11;10.88;;;3.38;;
49296;SDS011;35163;48.878;18.040;2023-11-21T10:05:40;7.45;;;3.13;;
49296;SDS011;35163;48.878;18.040;2023-11-21T10:08:09;8.52;;;2.90;;
49296;SDS011;35163;48.878;18.040;2023-11-21T10:10:37;6.78;;;2.92;;
49296;SDS011;35163;48.878;18.040;2023-11-21T10:13:05;13.32;;;3.53;;
49296;SDS011;35163;48.878;18.040;2023-11-21T10:15:34;8.00;;;2.92;;
49296;SDS011;35163;48.878;18.040;2023-11-21T10:18:05;8.40;;;3.33;;
49296;SDS011;35163;48.878;18.040;2023-11-21T10:20:33;9.40;;;3.50;;
49296;SDS011;35163;48.878;18.040;2023-11-21T10:23:00;8.80;;;3.70;;
49296;SDS011;35163;48.878;18.040;2023-11-21T10:25:30;11.25;;;3.67;;
49296;SDS011;35163;48.878;18.040;2023-11-21T10:27:58;7.40;;;3.20;;
49296;SDS011;35163;48.878;18.040;2023-11-21T10:30:34;10.35;;;3.45;;
49296;SDS011;35163;48.878;18.040;2023-11-21T10:33:04;8.90;;;3.25;;
49296;SDS011;35163;48.878;18.040;2023-11-21T10:35:44;8.60;;;3.38;;
49296;SDS011;35163;48.878;18.040;2023-11-21T10:38:20;10.57;;;3.58;;
49296;SDS011;35163;48.878;18.040;2023-11-21T10:40:50;12.02;;;4.68;;
49296;SDS011;35163;48.878;18.040;2023-11-21T10:43:17;10.13;;;3.70;;
49296;SDS011;35163;48.878;18.040;2023-11-21T10:45:45;10.15;;;3.80;;
49296;SDS011;35163;48.878;18.040;2023-11-21T10:48:13;8.27;;;3.47;;
49296;SDS011;35163;48.878;18.040;2023-11-21T10:50:45;10.82;;;3.78;;
49296;SDS011;35163;48.878;18.040;2023-11-21T10:53:13;10.48;;;3.20;;
49296;SDS011;35163;48.878;18.040;2023-11-21T10:55:40;8.25;;;3.50;;
49296;SDS011;35163;48.878;18.040;2023-11-21T10:58:07;6.95;;;3.20;;
49296;SDS011;35163;48.878;18.040;2023-11-21T11:00:37;13.60;;;3.40;;
49296;SDS011;35163;48.878;18.040;2023-11-21T11:03:07;8.15;;;3.75;;
49296;SDS011;35163;48.878;18.040;2023-11-21T11:05:42;8.52;;;3.45;;
49296;SDS011;35163;48.878;18.040;2023-11-21T11:08:19;8.75;;;3.60;;
49296;SDS011;35163;48.878;18.040;2023-11-21T11:10:53;7.72;;;3.17;;
49296;SDS011;35163;48.878;18.040;2023-11-21T11:13:21;6.00;;;3.25;;
49296;SDS011;35163;48.878;18.040;2023-11-21T11:15:49;15.32;;;3.78;;
49296;SDS011;35163;48.878;18.040;2023-11-21T11:18:16;10.43;;;3.90;;
49296;SDS011;35163;48.878;18.040;2023-11-21T11:20:44;8.25;;;3.40;;
49296;SDS011;35163;48.878;18.040;2023-11-21T11:23:38;9.15;;;3.65;;
49296;SDS011;35163;48.878;18.040;2023-11-21T11:26:20;9.80;;;3.92;;
49296;SDS011;35163;48.878;18.040;2023-11-21T11:34:36;7.03;;;2.97;;
49296;SDS011;35163;48.878;18.040;2023-11-21T11:37:16;8.02;;;3.53;;
49296;SDS011;35163;48.878;18.040;2023-11-21T11:39:43;8.65;;;3.80;;
49296;SDS011;35163;48.878;18.040;2023-11-21T11:42:12;8.55;;;3.28;;
49296;SDS011;35163;48.878;18.040;2023-11-21T11:52:41;8.65;;;3.47;;
49296;SDS011;35163;48.878;18.040;2023-11-21T11:55:13;8.63;;;3.38;;
49296;SDS011;35163;48.878;18.040;2023-11-21T11:57:42;9.23;;;3.47;;
49296;SDS011;35163;48.878;18.040;2023-11-21T12:02:52;9.18;;;3.50;;
49296;SDS011;35163;48.878;18.040;2023-11-21T12:05:32;9.07;;;3.70;;
49296;SDS011;35163;48.878;18.040;2023-11-21T12:08:02;8.38;;;3.70;;
49296;SDS011;35163;48.878;18.040;2023-11-21T12:10:30;8.10;;;3.75;;
49296;SDS011;35163;48.878;18.040;2023-11-21T12:13:02;7.45;;;3.47;;
49296;SDS011;35163;48.878;18.040;2023-11-21T12:15:38;13.35;;;4.32;;
49296;SDS011;35163;48.878;18.040;2023-11-21T12:18:08;11.90;;;4.30;;
49296;SDS011;35163;48.878;18.040;2023-11-21T12:20:35;10.80;;;4.40;;
49296;SDS011;35163;48.878;18.040;2023-11-21T12:23:09;9.13;;;4.28;;
49296;SDS011;35163;48.878;18.040;2023-11-21T12:25:37;10.13;;;4.28;;
49296;SDS011;35163;48.878;18.040;2023-11-21T12:28:09;11.73;;;4.13;;
49296;SDS011;35163;48.878;18.040;2023-11-21T12:30:38;8.10;;;3.63;;
49296;SDS011;35163;48.878;18.040;2023-11-21T12:33:06;11.80;;;3.45;;
49296;SDS011;35163;48.878;18.040;2023-11-21T12:35:35;7.72;;;3.42;;
49296;SDS011;35163;48.878;18.040;2023-11-21T12:38:02;11.85;;;3.95;;
49296;SDS011;35163;48.878;18.040;2023-11-21T12:40:31;7.30;;;3.17;;
49296;SDS011;35163;48.878;18.040;2023-11-21T12:42:58;10.23;;;3.53;;
49296;SDS011;35163;48.878;18.040;2023-11-21T12:45:28;9.52;;;3.90;;
49296;SDS011;35163;48.878;18.040;2023-11-21T12:47:56;9.35;;;3.50;;
49296;SDS011;35163;48.878;18.040;2023-11-21T12:50:27;7.25;;;3.38;;
49296;SDS011;35163;48.878;18.040;2023-11-21T12:53:01;8.75;;;3.33;;
49296;SDS011;35163;48.878;18.040;2023-11-21T12:55:36;9.35;;;3.33;;
49296;SDS011;35163;48.878;18.040;2023-11-21T12:58:05;11.45;;;3.70;;
49296;SDS011;35163;48.878;18.040;2023-11-21T13:00:38;10.93;;;3.55;;
49296;SDS011;35163;48.878;18.040;2023-11-21T13:03:10;10.07;;;3.05;;
49296;SDS011;35163;48.878;18.040;2023-11-21T13:05:40;10.45;;;3.47;;
49296;SDS011;35163;48.878;18.040;2023-11-21T13:08:14;6.28;;;3.22;;
49296;SDS011;35163;48.878;18.040;2023-11-21T13:10:46;6.78;;;2.88;;
49296;SDS011;35163;48.878;18.040;2023-11-21T13:13:16;9.77;;;3.63;;
49296;SDS011;35163;48.878;18.040;2023-11-21T13:18:16;11.70;;;4.18;;
49296;SDS011;35163;48.878;18.040;2023-11-21T13:20:43;6.97;;;3.33;;
49296;SDS011;35163;48.878;18.040;2023-11-21T13:23:10;10.65;;;3.85;;
49296;SDS011;35163;48.878;18.040;2023-11-21T13:25:42;13.45;;;4.00;;
49296;SDS011;35163;48.878;18.040;2023-11-21T13:28:22;10.15;;;3.58;;
49296;SDS011;35163;48.878;18.040;2023-11-21T13:30:50;10.93;;;3.45;;
49296;SDS011;35163;48.878;18.040;2023-11-21T13:33:19;8.88;;;3.45;;
49296;SDS011;35163;48.878;18.040;2023-11-21T13:35:48;12.43;;;4.57;;
49296;SDS011;35163;48.878;18.040;2023-11-21T13:38:18;10.18;;;4.40;;
49296;SDS011;35163;48.878;18.040;2023-11-21T13:40:50;11.25;;;4.60;;
49296;SDS011;35163;48.878;18.040;2023-11-21T13:43:20;10.20;;;4.78;;
49296;SDS011;35163;48.878;18.040;2023-11-21T13:45:51;10.45;;;4.10;;
49296;SDS011;35163;48.878;18.040;2023-11-21T13:48:26;7.97;;;3.63;;
49296;SDS011;35163;48.878;18.040;2023-11-21T13:51:07;8.73;;;3.65;;
49296;SDS011;35163;48.878;18.040;2023-11-21T13:53:44;10.02;;;3.63;;
49296;SDS011;35163;48.878;18.040;2023-11-21T13:56:14;14.50;;;4.43;;
49296;SDS011;35163;48.878;18.040;2023-11-21T13:58:46;11.88;;;4.97;;
49296;SDS011;35163;48.878;18.040;2023-11-21T14:01:20;15.95;;;4.68;;
49296;SDS011;35163;48.878;18.040;2023-11-21T14:03:59;10.73;;;4.65;;
49296;SDS011;35163;48.878;18.040;2023-11-21T14:06:48;10.63;;;5.10;;
49296;SDS011;35163;48.878;18.040;2023-11-21T14:09:19;11.38;;;4.75;;
49296;SDS011;35163;48.878;18.040;2023-11-21T14:11:52;9.63;;;4.45;;
49296;SDS011;35163;48.878;18.040;2023-11-21T14:14:23;10.73;;;4.53;;
49296;SDS011;35163;48.878;18.040;2023-11-21T14:16:57;10.55;;;4.20;;
49296;SDS011;35163;48.878;18.040;2023-11-21T14:19:25;11.52;;;4.00;;
49296;SDS011;35163;48.878;18.040;2023-11-21T14:21:58;8.07;;;3.80;;
49296;SDS011;35163;48.878;18.040;2023-11-21T14:24:24;11.10;;;4.22;;
49296;SDS011;35163;48.878;18.040;2023-11-21T14:26:51;12.25;;;4.45;;
49296;SDS011;35163;48.878;18.040;2023-11-21T14:29:19;12.10;;;4.10;;
49296;SDS011;35163;48.878;18.040;2023-11-21T14:31:46;8.13;;;3.92;;
49296;SDS011;35163;48.878;18.040;2023-11-21T14:34:14;7.72;;;4.07;;
49296;SDS011;35163;48.878;18.040;2023-11-21T14:36:45;9.73;;;4.22;;
49296;SDS011;35163;48.878;18.040;2023-11-21T14:39:12;10.20;;;4.18;;
49296;SDS011;35163;48.878;18.040;2023-11-21T14:41:54;7.65;;;3.60;;
49296;SDS011;35163;48.878;18.040;2023-11-21T14:44:25;9.15;;;3.83;;
49296;SDS011;35163;48.878;18.040;2023-11-21T14:46:55;7.53;;;3.53;;
49296;SDS011;35163;48.878;18.040;2023-11-21T14:49:24;13.60;;;5.90;;
49296;SDS011;35163;48.878;18.040;2023-11-21T14:51:55;10.93;;;4.22;;
49296;SDS011;35163;48.878;18.040;2023-11-21T14:54:34;8.48;;;3.80;;
49296;SDS011;35163;48.878;18.040;2023-11-21T14:57:09;10.63;;;3.55;;